createdAt,value
2023-05-05T00:01:08.986Z,60.42
2023-05-05T00:03:40.271Z,60.85
2023-05-05T00:06:13.420Z,59.94
2023-05-05T00:08:41.432Z,60.49
2023-05-05T00:11:16.766Z,61.57
2023-05-05T00:13:50.803Z,62.36
2023-05-05T00:16:18.926Z,63.15
2023-05-05T00:18:47.359Z,62.27
2023-05-05T00:21:19.382Z,62.95
2023-05-05T00:23:48.467Z,62.92
2023-05-05T00:26:19.824Z,65.01
2023-05-05T00:28:52.187Z,63.30
2023-05-05T00:31:24.099Z,64.44
2023-05-05T00:33:52.473Z,64.22
2023-05-05T00:36:21.323Z,65.49
2023-05-05T00:38:49.624Z,66.00
2023-05-05T00:41:20.655Z,66.24
2023-05-05T00:43:50.497Z,66.03
2023-05-05T00:46:26.257Z,66.55
2023-05-05T00:48:58.527Z,64.84
2023-05-05T00:51:27.249Z,64.70
2023-05-05T00:53:59.888Z,63.70
2023-05-05T00:56:28.982Z,64.87
2023-05-05T00:58:59.714Z,63.80
2023-05-05T01:01:32.224Z,63.27
2023-05-05T01:04:02.825Z,63.41
2023-05-05T01:06:43.781Z,63.64
2023-05-05T01:09:22.849Z,64.76
2023-05-05T01:12:07.700Z,63.12
2023-05-05T01:14:41.226Z,62.98
2023-05-05T01:17:16.557Z,64.66
2023-05-05T01:20:04.831Z,63.89
2023-05-05T01:22:39.870Z,64.42
2023-05-05T01:25:23.868Z,64.36
2023-05-05T01:28:02.298Z,65.10
2023-05-05T01:31:09.157Z,65.32
2023-05-05T01:33:46.113Z,65.31
2023-05-05T01:36:22.963Z,65.25
2023-05-05T01:38:55.731Z,64.99
2023-05-05T01:41:34.340Z,65.02
2023-05-05T01:44:07.057Z,64.49
2023-05-05T01:46:37.134Z,64.83
2023-05-05T01:49:11.775Z,64.32
2023-05-05T01:51:43.758Z,66.22
2023-05-05T01:54:16.631Z,67.48
2023-05-05T01:56:44.933Z,68.68
2023-05-05T01:59:17.659Z,70.57
2023-05-05T02:01:47.305Z,70.99
2023-05-05T02:04:22.903Z,70.27
2023-05-05T02:06:54.370Z,69.25
2023-05-05T02:09:25.756Z,68.92
2023-05-05T02:11:54.743Z,68.09
2023-05-05T02:14:23.666Z,69.77
2023-05-05T02:16:52.408Z,69.80
2023-05-05T02:19:30.454Z,68.89
2023-05-05T02:21:59.313Z,68.79
2023-05-05T02:24:27.878Z,68.62
2023-05-05T02:27:10.233Z,68.32
2023-05-05T02:29:45.007Z,69.08
2023-05-05T02:32:18.780Z,67.63
2023-05-05T02:35:06.606Z,67.67
2023-05-05T02:37:35.663Z,66.54
2023-05-05T02:40:06.707Z,66.47
2023-05-05T02:42:43.857Z,67.74
2023-05-05T02:45:17.451Z,68.05
2023-05-05T02:47:45.792Z,67.01
2023-05-05T02:50:17.363Z,67.65
2023-05-05T02:52:51.478Z,68.32
2023-05-05T02:55:19.850Z,68.47
2023-05-05T02:57:55.721Z,65.67
2023-05-05T03:00:27.311Z,66.00
2023-05-05T03:03:06.119Z,67.56
2023-05-05T03:05:40.896Z,68.45
2023-05-05T03:08:12.615Z,68.81
2023-05-05T03:10:45.673Z,68.88
2023-05-05T03:13:16.265Z,69.19
2023-05-05T03:15:50.672Z,68.55
2023-05-05T03:18:20.803Z,69.90
2023-05-05T03:21:09.513Z,69.31
2023-05-05T03:23:40.289Z,69.74
2023-05-05T03:26:10.506Z,70.90
2023-05-05T03:28:38.780Z,70.75
2023-05-05T03:31:07.054Z,70.87
2023-05-05T03:33:37.942Z,70.60
2023-05-05T03:36:18.602Z,70.81
2023-05-05T03:38:46.985Z,70.81
2023-05-05T03:41:17.623Z,71.67
2023-05-05T03:43:48.886Z,69.73
2023-05-05T03:46:17.697Z,71.03
2023-05-05T03:48:46.735Z,70.15
2023-05-05T03:51:21.807Z,70.49
2023-05-05T03:53:53.199Z,71.40
2023-05-05T03:56:21.606Z,71.49
2023-05-05T03:58:49.625Z,70.96
2023-05-05T04:01:22.276Z,71.42
2023-05-05T04:03:50.702Z,71.43
2023-05-05T04:06:23.502Z,70.33
2023-05-05T04:08:52.215Z,70.09
2023-05-05T04:11:20.938Z,71.19
2023-05-05T04:13:54.691Z,70.17
2023-05-05T04:16:24.475Z,69.60
2023-05-05T04:18:52.799Z,68.06
2023-05-05T04:21:22.819Z,68.37
2023-05-05T04:23:57.720Z,68.01
2023-05-05T04:26:25.819Z,67.21
2023-05-05T04:28:56.076Z,66.39
2023-05-05T04:31:26.239Z,65.68
2023-05-05T04:33:55.983Z,66.01
2023-05-05T04:36:26.372Z,66.27
2023-05-05T04:38:57.453Z,66.76
2023-05-05T04:41:32.365Z,67.81
2023-05-05T04:44:04.137Z,67.90
2023-05-05T04:46:32.481Z,67.02
2023-05-05T04:49:04.394Z,65.88
2023-05-05T04:51:36.434Z,65.45
2023-05-05T04:54:05.932Z,64.69
2023-05-05T04:56:34.318Z,65.11
2023-05-05T04:59:02.703Z,64.50
2023-05-05T05:01:36.216Z,65.17
2023-05-05T05:04:06.456Z,64.55
2023-05-05T05:06:40.409Z,63.90
2023-05-05T05:09:08.828Z,63.22
2023-05-05T05:11:37.868Z,63.54
2023-05-05T05:14:06.262Z,63.91
2023-05-05T05:16:37.347Z,63.90
2023-05-05T05:19:06.944Z,63.81
2023-05-05T05:21:37.640Z,63.02
2023-05-05T05:24:16.506Z,62.03
2023-05-05T05:26:46.255Z,61.37
2023-05-05T05:29:27.503Z,61.03
2023-05-05T05:32:00.265Z,62.44
2023-05-05T05:34:30.731Z,64.15
2023-05-05T05:37:02.379Z,65.70
2023-05-05T05:39:33.243Z,64.69
2023-05-05T05:42:06.938Z,64.44
2023-05-05T05:44:44.069Z,65.33
2023-05-05T05:47:15.140Z,63.49
2023-05-05T05:49:45.177Z,63.28
2023-05-05T05:52:16.854Z,64.85
2023-05-05T05:54:45.878Z,64.68
2023-05-05T05:57:16.110Z,63.44
2023-05-05T05:59:50.516Z,65.04
2023-05-05T06:02:21.895Z,65.42
2023-05-05T06:04:50.975Z,64.48
2023-05-05T06:07:23.870Z,64.38
2023-05-05T06:09:51.638Z,65.33
2023-05-05T06:12:20.158Z,65.55
2023-05-05T06:14:49.094Z,64.69
2023-05-05T06:17:17.600Z,65.88
2023-05-05T06:19:45.573Z,66.65
2023-05-05T06:22:16.642Z,69.09
2023-05-05T06:24:48.962Z,68.35
2023-05-05T06:27:17.342Z,68.30
2023-05-05T06:29:45.834Z,68.03
2023-05-05T06:32:14.912Z,66.99
2023-05-05T06:34:44.709Z,67.77
2023-05-05T06:37:13.250Z,65.77
2023-05-05T06:39:49.358Z,65.52
2023-05-05T06:42:19.308Z,65.54
2023-05-05T06:44:48.813Z,66.89
2023-05-05T06:47:17.448Z,67.38
2023-05-05T06:49:45.616Z,67.62
2023-05-05T06:52:13.996Z,67.61
2023-05-05T06:54:43.888Z,69.19
2023-05-05T06:57:33.136Z,69.39
2023-05-05T07:00:08.027Z,69.72
2023-05-05T07:02:36.871Z,69.69
2023-05-05T07:05:06.181Z,68.12
2023-05-05T07:07:38.575Z,69.26
2023-05-05T07:10:11.421Z,69.89
2023-05-05T07:12:44.794Z,70.23
2023-05-05T07:15:26.580Z,70.86
2023-05-05T07:17:58.574Z,69.89
2023-05-05T07:20:26.919Z,68.99
2023-05-05T07:23:01.238Z,69.02
2023-05-05T07:25:32.969Z,68.34
2023-05-05T07:28:08.204Z,69.79
2023-05-05T07:30:36.755Z,70.30
2023-05-05T07:33:10.090Z,70.39
2023-05-05T07:35:49.229Z,68.98
2023-05-05T07:38:20.062Z,69.62
2023-05-05T07:40:50.484Z,68.82
2023-05-05T07:43:30.158Z,67.33
2023-05-05T07:45:58.404Z,68.54
2023-05-05T07:48:26.833Z,67.96
2023-05-05T07:50:55.281Z,67.94
2023-05-05T07:53:25.934Z,67.34
2023-05-05T07:55:54.542Z,68.84
2023-05-05T07:58:25.052Z,66.51
2023-05-05T08:00:57.056Z,66.27
2023-05-05T08:03:28.163Z,68.66
2023-05-05T08:05:57.045Z,67.18
2023-05-05T08:08:26.234Z,67.31
2023-05-05T08:10:57.247Z,67.99
2023-05-05T08:13:28.398Z,68.36
2023-05-05T08:16:09.930Z,68.26
2023-05-05T08:18:41.914Z,69.10
2023-05-05T08:21:10.985Z,67.99
2023-05-05T08:23:42.788Z,67.60
2023-05-05T08:26:15.430Z,67.34
2023-05-05T08:28:44.815Z,68.93
2023-05-05T08:31:19.724Z,71.20
2023-05-05T08:33:48.241Z,69.86
2023-05-05T08:36:18.849Z,72.48
2023-05-05T08:38:50.464Z,72.63
2023-05-05T08:41:21.889Z,72.51
2023-05-05T08:43:54.147Z,72.11
2023-05-05T08:46:25.583Z,73.84
2023-05-05T08:48:58.628Z,73.96
2023-05-05T08:51:34.739Z,73.48
2023-05-05T08:54:11.823Z,73.53
2023-05-05T08:56:41.801Z,73.94
2023-05-05T08:59:25.505Z,72.69
2023-05-05T09:01:58.297Z,71.85
2023-05-05T09:04:29.070Z,71.20
2023-05-05T09:07:01.491Z,71.24
2023-05-05T09:09:32.121Z,71.83
2023-05-05T09:12:05.020Z,71.78
2023-05-05T09:14:34.802Z,71.03
2023-05-05T09:17:04.835Z,71.16
2023-05-05T09:19:37.302Z,70.99
2023-05-05T09:22:05.404Z,69.72
2023-05-05T09:24:34.317Z,68.38
2023-05-05T09:27:03.219Z,68.15
2023-05-05T09:29:45.224Z,67.84
2023-05-05T09:32:21.877Z,69.36
2023-05-05T09:35:02.401Z,68.97
2023-05-05T09:37:35.102Z,69.29
2023-05-05T09:40:05.418Z,68.92
2023-05-05T09:42:36.180Z,67.43
2023-05-05T09:45:09.135Z,69.77
2023-05-05T09:47:40.801Z,68.93
2023-05-05T09:50:11.707Z,67.74
2023-05-05T09:52:43.860Z,67.81
2023-05-05T09:55:27.810Z,66.68
2023-05-05T09:58:09.538Z,67.54
2023-05-05T10:00:40.148Z,68.44
2023-05-05T10:03:12.887Z,68.04
2023-05-05T10:05:52.010Z,67.24
2023-05-05T10:08:21.796Z,66.79
2023-05-05T10:10:53.955Z,66.67
2023-05-05T10:13:26.802Z,67.34
2023-05-05T10:15:59.941Z,65.47
2023-05-05T10:18:34.193Z,64.92
2023-05-05T10:21:05.329Z,65.61
2023-05-05T10:23:39.400Z,66.86
2023-05-05T10:26:19.913Z,67.11
2023-05-05T10:28:56.751Z,66.49
2023-05-05T10:31:29.689Z,67.88
2023-05-05T10:34:04.605Z,68.21
2023-05-05T10:36:35.149Z,68.81
2023-05-05T10:39:09.378Z,68.06
2023-05-05T10:41:41.122Z,67.28
2023-05-05T10:44:11.233Z,66.25
2023-05-05T10:46:39.819Z,65.76
2023-05-05T10:49:20.121Z,66.23
2023-05-05T10:51:55.856Z,65.60
2023-05-05T10:54:36.360Z,67.01
2023-05-05T10:57:09.215Z,67.61
2023-05-05T10:59:46.710Z,67.93
2023-05-05T11:02:40.603Z,67.34
2023-05-05T11:05:21.089Z,65.11
2023-05-05T11:07:52.531Z,64.44
2023-05-05T11:10:24.679Z,64.20
2023-05-05T11:13:20.319Z,63.49
2023-05-05T11:15:57.213Z,61.88
2023-05-05T11:18:36.412Z,62.09
2023-05-05T11:21:20.622Z,59.47
2023-05-05T11:23:51.295Z,59.92
2023-05-05T11:26:23.750Z,60.39
2023-05-05T11:29:02.976Z,58.25
2023-05-05T11:31:36.258Z,59.23
2023-05-05T11:34:29.525Z,57.63
2023-05-05T11:37:13.121Z,56.10
2023-05-05T11:39:54.909Z,55.47
2023-05-05T11:42:28.074Z,56.23
2023-05-05T11:44:56.566Z,55.40
2023-05-05T11:47:32.430Z,54.58
2023-05-05T11:50:16.729Z,56.45
2023-05-05T11:52:49.739Z,56.68
2023-05-05T11:55:23.741Z,55.26
2023-05-05T11:57:55.325Z,54.34
2023-05-05T12:00:36.722Z,55.38
2023-05-05T12:03:06.578Z,55.94
2023-05-05T12:05:40.093Z,56.09
2023-05-05T12:08:10.374Z,55.66
2023-05-05T12:10:40.948Z,56.34
2023-05-05T12:13:23.429Z,56.12
2023-05-05T12:15:57.821Z,56.19
2023-05-05T12:18:28.812Z,56.18
2023-05-05T12:20:57.274Z,55.44
2023-05-05T12:23:32.028Z,55.25
2023-05-05T12:25:59.882Z,56.22
2023-05-05T12:28:50.509Z,55.54
2023-05-05T12:31:18.723Z,55.46
2023-05-05T12:33:59.584Z,55.21
2023-05-05T12:36:31.176Z,55.83
2023-05-05T12:39:03.390Z,55.25
2023-05-05T12:41:35.065Z,55.59
2023-05-05T12:44:06.018Z,52.57
2023-05-05T12:46:47.360Z,52.66
2023-05-05T12:49:20.343Z,51.05
2023-05-05T12:51:58.392Z,50.31
2023-05-05T12:54:33.689Z,48.57
2023-05-05T12:57:12.779Z,49.64
2023-05-05T12:59:40.608Z,48.51
2023-05-05T13:02:11.707Z,48.59
2023-05-05T13:04:50.397Z,48.33
2023-05-05T13:07:21.757Z,49.40
2023-05-05T13:09:51.995Z,47.46
2023-05-05T13:12:23.308Z,47.16
2023-05-05T13:14:58.015Z,48.96
2023-05-05T13:17:32.804Z,48.47
2023-05-05T13:20:06.698Z,49.09
2023-05-05T13:22:44.956Z,49.18
2023-05-05T13:25:20.056Z,47.55
2023-05-05T13:27:52.972Z,48.03
2023-05-05T13:30:21.448Z,46.34
2023-05-05T13:32:49.597Z,46.44
2023-05-05T13:35:20.174Z,47.82
2023-05-05T13:37:52.521Z,49.18
2023-05-05T13:40:24.516Z,50.58
2023-05-05T13:42:55.232Z,52.53
2023-05-05T13:45:24.329Z,51.62
2023-05-05T13:47:55.033Z,51.79
2023-05-05T13:50:31.968Z,52.30
2023-05-05T13:52:59.883Z,53.47
2023-05-05T13:55:36.507Z,53.24
2023-05-05T13:58:09.679Z,53.85
2023-05-05T14:00:37.886Z,55.17
2023-05-05T14:03:08.909Z,55.45
2023-05-05T14:05:39.148Z,56.24
2023-05-05T14:08:09.724Z,57.15
2023-05-05T14:10:40.479Z,56.99
2023-05-05T14:13:09.055Z,57.04
2023-05-05T14:15:38.827Z,56.81
2023-05-05T14:18:08.709Z,58.42
2023-05-05T14:20:41.672Z,59.18
2023-05-05T14:23:11.065Z,59.50
2023-05-05T14:25:43.900Z,60.49
2023-05-05T14:28:12.766Z,60.67
2023-05-05T14:30:44.920Z,61.36
2023-05-05T14:33:14.496Z,61.73
2023-05-05T14:35:42.802Z,61.47
2023-05-05T14:38:13.889Z,60.74
2023-05-05T14:40:46.102Z,62.55
2023-05-05T14:43:17.059Z,63.52
2023-05-05T14:45:48.400Z,64.70
2023-05-05T14:48:25.454Z,65.72
2023-05-05T14:50:59.455Z,65.79
2023-05-05T14:53:30.968Z,66.11
2023-05-05T14:56:07.045Z,66.30
2023-05-05T14:58:44.488Z,66.17
2023-05-05T15:01:21.213Z,66.09
2023-05-05T15:03:52.613Z,64.77
2023-05-05T15:06:28.555Z,65.62
2023-05-05T15:08:56.900Z,64.62
2023-05-05T15:11:28.418Z,65.26
2023-05-05T15:13:57.390Z,65.68
2023-05-05T15:16:29.359Z,65.60
2023-05-05T15:18:58.457Z,65.94
2023-05-05T15:21:26.981Z,64.27
2023-05-05T15:23:57.335Z,64.50
2023-05-05T15:26:29.300Z,64.83
2023-05-05T15:28:57.133Z,66.78
2023-05-05T15:31:26.999Z,65.23
2023-05-05T15:34:01.697Z,64.86
2023-05-05T15:36:29.887Z,64.82
2023-05-05T15:38:59.172Z,65.21
2023-05-05T15:41:29.669Z,67.92
2023-05-05T15:43:58.396Z,66.06
2023-05-05T15:46:26.884Z,66.37
2023-05-05T15:48:54.699Z,70.04
2023-05-05T15:51:27.428Z,68.05
2023-05-05T15:54:04.207Z,68.63
2023-05-05T15:56:33.866Z,70.13
2023-05-05T15:59:05.396Z,70.10
2023-05-05T16:01:36.612Z,70.16
2023-05-05T16:04:08.848Z,72.78
2023-05-05T16:06:37.053Z,76.41
2023-05-05T16:09:05.714Z,75.70
2023-05-05T16:11:37.736Z,77.28
2023-05-05T16:14:05.716Z,78.81
2023-05-05T16:16:33.733Z,77.18
2023-05-05T16:19:01.872Z,77.74
2023-05-05T16:21:31.470Z,78.77
2023-05-05T16:23:59.733Z,80.79
2023-05-05T16:26:30.223Z,81.30
2023-05-05T16:29:00.925Z,82.72
2023-05-05T16:31:29.599Z,83.06
2023-05-05T16:34:14.971Z,82.17
2023-05-05T16:36:46.046Z,81.95
2023-05-05T16:39:18.843Z,85.01
2023-05-05T16:41:52.407Z,90.40
2023-05-05T16:44:25.361Z,92.94
2023-05-05T16:46:53.958Z,91.94
2023-05-05T16:49:24.165Z,92.49
2023-05-05T16:51:52.834Z,92.31
2023-05-05T16:54:21.260Z,91.27
2023-05-05T16:56:52.642Z,90.23
2023-05-05T16:59:22.756Z,90.99
2023-05-05T17:01:56.205Z,89.87
2023-05-05T17:04:25.242Z,91.00
2023-05-05T17:06:56.336Z,90.28
2023-05-05T17:09:27.316Z,89.87
2023-05-05T17:12:01.043Z,91.62
2023-05-05T17:14:30.664Z,92.37
2023-05-05T17:16:59.511Z,90.17
2023-05-05T17:19:29.533Z,89.74
2023-05-05T17:21:57.679Z,90.85
2023-05-05T17:24:40.337Z,91.79
2023-05-05T17:27:13.449Z,90.14
2023-05-05T17:29:43.265Z,90.91
2023-05-05T17:32:11.154Z,89.60
2023-05-05T17:34:41.777Z,88.61
2023-05-05T17:37:10.658Z,88.66
2023-05-05T17:39:39.662Z,86.89
2023-05-05T17:42:09.108Z,86.37
2023-05-05T17:44:36.976Z,84.70
2023-05-05T17:47:08.614Z,87.21
2023-05-05T17:49:36.553Z,87.68
2023-05-05T17:52:07.498Z,89.76
2023-05-05T17:54:39.159Z,90.12
2023-05-05T17:57:11.234Z,88.73
2023-05-05T17:59:39.449Z,87.83
2023-05-05T18:02:15.679Z,86.90
2023-05-05T18:04:43.915Z,87.47
2023-05-05T18:07:14.971Z,86.51
2023-05-05T18:09:52.279Z,83.85
2023-05-05T18:12:20.503Z,82.03
2023-05-05T18:14:50.744Z,81.20
2023-05-05T18:17:21.541Z,81.38
2023-05-05T18:19:51.037Z,80.79
2023-05-05T18:22:22.006Z,82.08
2023-05-05T18:24:59.982Z,82.22
2023-05-05T18:27:32.638Z,80.46
2023-05-05T18:30:00.977Z,80.75
2023-05-05T18:32:31.946Z,79.39
2023-05-05T18:35:00.562Z,79.05
2023-05-05T18:37:34.148Z,80.41
2023-05-05T18:40:02.332Z,82.86
2023-05-05T18:42:34.603Z,82.25
2023-05-05T18:45:08.578Z,82.71
2023-05-05T18:47:44.317Z,83.78
2023-05-05T18:50:13.927Z,86.18
2023-05-05T18:52:48.326Z,84.65
2023-05-05T18:55:18.897Z,83.36
2023-05-05T18:57:47.198Z,84.23
2023-05-05T19:00:30.312Z,82.82
2023-05-05T19:03:09.364Z,85.88
2023-05-05T19:05:42.281Z,85.49
2023-05-05T19:08:16.270Z,84.21
2023-05-05T19:10:49.646Z,87.11
2023-05-05T19:13:18.024Z,88.73
2023-05-05T19:15:49.869Z,89.72
2023-05-05T19:18:20.134Z,90.32
2023-05-05T19:20:52.969Z,90.30
2023-05-05T19:23:22.977Z,93.14
2023-05-05T19:26:16.918Z,93.39
2023-05-05T19:28:46.495Z,94.20
2023-05-05T19:31:25.197Z,92.67
2023-05-05T19:34:07.335Z,91.74
2023-05-05T19:36:35.799Z,93.26
2023-05-05T19:39:08.630Z,93.02
2023-05-05T19:41:37.069Z,94.71
2023-05-05T19:44:05.548Z,96.66
2023-05-05T19:46:33.812Z,96.90
2023-05-05T19:49:04.070Z,95.83
2023-05-05T19:51:33.180Z,97.20
2023-05-05T19:54:01.327Z,96.94
2023-05-05T19:56:29.717Z,95.79
2023-05-05T19:59:05.375Z,96.02
2023-05-05T20:01:34.560Z,95.92
2023-05-05T20:04:04.835Z,95.47
2023-05-05T20:06:33.789Z,95.69
2023-05-05T20:09:02.342Z,96.06
2023-05-05T20:11:34.658Z,93.22
2023-05-05T20:14:04.676Z,90.20
2023-05-05T20:16:33.936Z,90.51
2023-05-05T20:19:03.922Z,88.10
2023-05-05T20:21:32.852Z,86.44
2023-05-05T20:24:02.639Z,85.61
2023-05-05T20:26:37.060Z,86.78
2023-05-05T20:29:06.452Z,85.43
2023-05-05T20:31:35.006Z,87.50
2023-05-05T20:34:06.933Z,87.02
2023-05-05T20:36:38.762Z,87.96
2023-05-05T20:39:07.746Z,89.44
2023-05-05T20:41:36.379Z,88.07
2023-05-05T20:44:07.785Z,86.69
2023-05-05T20:46:36.416Z,84.85
2023-05-05T20:49:09.448Z,83.89
2023-05-05T20:51:39.854Z,84.52
2023-05-05T20:54:08.064Z,86.45
2023-05-05T20:56:36.262Z,85.05
2023-05-05T20:59:04.945Z,85.77
2023-05-05T21:01:35.565Z,85.00
2023-05-05T21:04:07.659Z,85.07
2023-05-05T21:06:35.843Z,84.07
2023-05-05T21:09:04.175Z,85.30
2023-05-05T21:11:34.758Z,83.56
2023-05-05T21:14:04.271Z,83.47
2023-05-05T21:16:33.612Z,84.20
2023-05-05T21:19:01.560Z,86.21
2023-05-05T21:21:32.603Z,88.42
2023-05-05T21:24:01.012Z,87.71
2023-05-05T21:26:33.074Z,87.21
2023-05-05T21:29:01.402Z,85.51
2023-05-05T21:31:34.454Z,83.35
2023-05-05T21:34:06.050Z,83.06
2023-05-05T21:36:36.318Z,81.21
2023-05-05T21:39:21.458Z,85.19
2023-05-05T21:41:52.511Z,84.86
2023-05-05T21:44:25.763Z,82.09
2023-05-05T21:46:57.161Z,83.05
2023-05-05T21:49:28.975Z,84.47
2023-05-05T21:52:01.747Z,83.75
2023-05-05T21:54:36.341Z,82.58
2023-05-05T21:57:04.694Z,82.67
2023-05-05T21:59:33.007Z,84.84
2023-05-05T22:02:04.777Z,84.95
2023-05-05T22:04:32.871Z,82.50
2023-05-05T22:07:03.496Z,83.72
2023-05-05T22:09:31.234Z,82.62
2023-05-05T22:12:02.610Z,83.71
2023-05-05T22:14:30.405Z,83.91
2023-05-05T22:17:04.180Z,84.48
2023-05-05T22:19:37.710Z,82.21
2023-05-05T22:22:10.430Z,83.97
2023-05-05T22:24:42.520Z,83.29
2023-05-05T22:27:12.160Z,82.58
2023-05-05T22:29:40.365Z,80.58
2023-05-05T22:32:12.644Z,82.12
2023-05-05T22:34:40.695Z,81.62
2023-05-05T22:37:10.365Z,81.42
2023-05-05T22:39:39.362Z,80.73
2023-05-05T22:42:10.008Z,82.33
2023-05-05T22:44:39.987Z,84.35
2023-05-05T22:47:11.399Z,83.62
2023-05-05T22:49:43.804Z,85.22
2023-05-05T22:52:14.082Z,83.71
2023-05-05T22:54:43.568Z,82.61
2023-05-05T22:57:15.825Z,82.19
2023-05-05T22:59:45.814Z,82.73
2023-05-05T23:02:14.711Z,81.75
2023-05-05T23:04:44.904Z,81.83
2023-05-05T23:07:23.952Z,81.42
2023-05-05T23:09:54.399Z,80.65
2023-05-05T23:12:23.020Z,79.61
2023-05-05T23:14:52.518Z,77.89
2023-05-05T23:17:27.595Z,78.81
2023-05-05T23:19:58.416Z,79.37
2023-05-05T23:22:32.508Z,79.93
2023-05-05T23:25:05.219Z,80.30
2023-05-05T23:27:33.934Z,78.58
2023-05-05T23:30:07.131Z,78.60
2023-05-05T23:32:35.326Z,78.81
2023-05-05T23:35:03.166Z,79.76
2023-05-05T23:37:33.301Z,79.89
2023-05-05T23:40:02.858Z,78.97
2023-05-05T23:42:32.697Z,79.46
2023-05-05T23:45:00.881Z,79.84
2023-05-05T23:47:29.417Z,79.51
2023-05-05T23:49:57.491Z,80.59
2023-05-05T23:52:25.907Z,79.82
2023-05-05T23:54:57.580Z,79.51
2023-05-05T23:57:29.476Z,80.84
